Marlborough, NH (03455)

6:20 AM EST on February 10, 2016 (GMT -0500)
APRSWXNET | | Change Station
CLOSE
Current Station
Personal Weather Station
Location: Marlborough, NH
Elevation: 754 ft
Nearby Weather Stations

Elev 754 ft 42.91 °N, 72.22 °W | Updated 35 minutes ago

Overcast
Overcast
15 °F
Feels Like 15 °F
N
0
Wind Variable Wind from SW
Gusts 0.0 mph

Today
High -- | Low -- °F
--% Chance of Precip.
Yesterday
High -- | Low -- °F
Precip. -- in
Pressure 29.56 in
Visibility 10.0 miles
Clouds Overcast 1100 ft
Windchill 15 °F
Dew Point 13 °F
Humidity 92%
Rainfall in
Snow Depth Not available.
6:53 AM 5:13 PM
Waxing Crescent, 5% visible
METAR KEEN 101115Z AUTO 00000KT 10SM OVC011 M09/M12 A2956 RMK AO1
Pressure 29.56 in
Visibility 10.0 miles
Clouds Overcast 1100 ft
Windchill 15 °F
Dew Point 13 °F
Humidity 92%
Rainfall in
Snow Depth Not available.
6:53 AM 5:13 PM
Waxing Crescent, 5% visible
METAR KEEN 101115Z AUTO 00000KT 10SM OVC011 M09/M12 A2956 RMK AO1

10-Day Weather Forecast

Almanac

Astronomy

Feb. 10, 2016 Rise Set
Actual Time
Civil Twilight
Nautical Twilight
Astronomical Twilight
Moon
Length of Visible Light
Length of Day
Tomorrow will be .
, % of the Moon is Illuminated

Today's Extremes

State Highs State Lows

Community

WunderPhotos

Upload Photos

1,891,830 photos uploaded!

WunderBlog® & News

Nearby

Air Quality

  Air Quality AQ Index Pollutant
Not available.

Snow Depth

Station Depth Elevation

Earthquake Activity

City Distance Mag. Time & Date
Minimum magnitude displayed is 2.5.

Coastal Water Temperatures

Place Temperature

Stations

Nearby Weather Stations

Station Location Temp. Windchill Dew Point Humidity Wind Precip. Elev Updated Type
                   

Watches & Warnings

There are currently no watches in effect.